This is the latest recevied weather packets stored in our database for station/object WA9NNN-10. If no packets are shown the sender has not sent any weather packets the latest 10 day(s).
| Time | Temp. | Humidity | Pressure | Rain* | Wind** | Luminosity | Snow |
|---|---|---|---|---|---|---|---|
| 1777828297 | 12.22° C | 68% | 1012.3 hPa | 0 mm | - | - | - |
| 1777827996 | 11.67° C | 69% | 1012.2 hPa | 0 mm | - | - | - |
| 1777827697 | 11.67° C | 69% | 1012.3 hPa | 0 mm | - | - | - |
| 1777827396 | 11.67° C | 70% | 1012.3 hPa | 0 mm | - | - | - |
| 1777827097 | 11.11° C | 70% | 1012.4 hPa | 0 mm | - | - | - |
| 1777826796 | 11.11° C | 70% | 1012.5 hPa | 0 mm | - | - | - |
| 1777826496 | 11.11° C | 69% | 1012.7 hPa | 0 mm | - | - | - |
| 1777826196 | 11.11° C | 68% | 1012.8 hPa | 0 mm | - | - | - |
| 1777825897 | 11.11° C | 68% | 1012.8 hPa | 0 mm | - | - | - |
| 1777825596 | 11.67° C | 66% | 1012.9 hPa | 0 mm | - | - | - |
| 1777825296 | 12.22° C | 65% | 1013.1 hPa | 0 mm | - | - | - |
| 1777824996 | 12.22° C | 62% | 1013.2 hPa | 0 mm | - | - | - |
| 1777824698 | 12.78° C | 59% | 1013.2 hPa | 0 mm | - | - | - |
| 1777824396 | 13.33° C | 57% | 1013.2 hPa | 0 mm | - | - | - |
| 1777824096 | 13.89° C | 55% | 1013.1 hPa | 0 mm | - | - | - |
| 1777823796 | 14.44° C | 53% | 1013 hPa | 0 mm | - | - | - |
| 1777823497 | 15° C | 52% | 1012.9 hPa | 0 mm | - | - | - |
| 1777823196 | 15° C | 52% | 1012.7 hPa | 0 mm | - | - | - |
| 1777822896 | 15° C | 53% | 1012.7 hPa | 0 mm | - | - | - |
| 1777822597 | 14.44° C | 55% | 1012.8 hPa | 0 mm | - | - | - |
| 1777822297 | 13.89° C | 55% | 1012.9 hPa | 0 mm | - | - | - |
| 1777821996 | 13.33° C | 55% | 1012.9 hPa | 0 mm | - | - | - |
| 1777821696 | 13.33° C | 55% | 1012.8 hPa | 0 mm | - | - | - |
| 1777821396 | 13.33° C | 55% | 1012.7 hPa | 0 mm | - | - | - |
| 1777821097 | 13.33° C | 55% | 1012.8 hPa | 0 mm | - | - | - |
* Rain latest hour (hover to see other rain measurements)
** Current wind speed in m/s (hover to see current wind gust speed)